Time;durP1;ratioP1;P1;durP2;ratioP2;P2;SDS_P1;SDS_P2;PMS_P1;PMS_P2;Temp;Humidity;BMP_temperature;BMP_pressure;BME280_temperature;BME280_humidity;BME280_pressure;Samples;Min_cycle;Max_cycle;Signal;HPM_P1;HPM_P2
2021/07/31 00:01:51;;;;;;;;;;;25.90;66.10;;;;;;5135367;27;19924;-60
2021/07/31 00:04:18;;;;;;;;;;;25.90;66.10;;;;;;5134088;27;19959;-60
2021/07/31 00:06:45;;;;;;;;;;;25.90;66.20;;;;;;5135319;27;19980;-61
2021/07/31 00:09:12;;;;;;;;;;;25.90;66.40;;;;;;5136827;27;19931;-61
2021/07/31 00:11:39;;;;;;;;;;;25.90;66.40;;;;;;5135361;27;20333;-60
2021/07/31 00:14:06;;;;;;;;;;;25.90;66.20;;;;;;5135654;27;19978;-61
2021/07/31 00:16:33;;;;;;;;;;;25.80;66.30;;;;;;5136205;27;19972;-60
2021/07/31 00:19:00;;;;;;;;;;;25.80;66.50;;;;;;5131906;27;19966;-61
2021/07/31 00:21:27;;;;;;;;;;;25.80;67.30;;;;;;5121897;27;20458;-60
2021/07/31 00:23:54;;;;;;;;;;;25.80;66.70;;;;;;5136442;27;19924;-61
2021/07/31 00:26:21;;;;;;;;;;;25.80;66.80;;;;;;5134448;27;20010;-60
2021/07/31 00:28:48;;;;;;;;;;;25.80;66.70;;;;;;5119145;27;19939;-60
2021/07/31 00:31:15;;;;;;;;;;;25.80;66.90;;;;;;5116617;27;20059;-60
2021/07/31 00:33:42;;;;;;;;;;;25.80;66.70;;;;;;5136472;27;19923;-61
2021/07/31 00:36:09;;;;;;;;;;;25.80;66.50;;;;;;5133108;27;19979;-60
2021/07/31 00:38:36;;;;;;;;;;;25.80;66.60;;;;;;5116964;27;20003;-61
2021/07/31 00:41:03;;;;;;;;;;;25.80;66.70;;;;;;5134960;27;20367;-60
2021/07/31 00:43:30;;;;;;;;;;;25.80;66.70;;;;;;5135059;27;19984;-61
2021/07/31 00:45:56;;;;;;;;;;;25.80;66.70;;;;;;5115886;27;20018;-61
2021/07/31 00:48:23;;;;;;;;;;;25.80;66.80;;;;;;5136104;27;19976;-60
2021/07/31 00:50:50;;;;;;;;;;;25.80;66.70;;;;;;5134975;27;20290;-61
2021/07/31 00:53:18;;;;;;;;;;;25.80;66.80;;;;;;5134011;27;19923;-60
2021/07/31 00:55:45;;;;;;;;;;;25.80;66.60;;;;;;5135386;27;19967;-60
2021/07/31 00:58:12;;;;;;;;;;;25.80;66.60;;;;;;5134028;27;20006;-60
2021/07/31 01:00:39;;;;;;;;;;;25.80;66.60;;;;;;5135393;27;19923;-60
2021/07/31 01:03:06;;;;;;;;;;;25.80;66.60;;;;;;5135538;27;20010;-60
2021/07/31 01:05:34;;;;;;;;;;;25.80;66.60;;;;;;5134170;27;19923;-61
2021/07/31 01:08:02;;;;;;;;;;;25.80;66.70;;;;;;5134429;27;20018;-61
2021/07/31 01:10:29;;;;;;;;;;;25.80;66.60;;;;;;5127664;27;20317;-60
2021/07/31 01:12:57;;;;;;;;;;;25.80;66.50;;;;;;5117282;27;19924;-60
2021/07/31 01:15:24;;;;;;;;;;;25.80;66.50;;;;;;5122579;27;20324;-60
2021/07/31 01:17:51;;;;;;;;;;;25.80;66.40;;;;;;5135368;27;20018;-60
2021/07/31 01:20:18;;;;;;;;;;;25.80;66.60;;;;;;5133834;27;19931;-61
2021/07/31 01:22:45;;;;;;;;;;;25.70;66.50;;;;;;5116112;27;19984;-60
2021/07/31 01:25:12;;;;;;;;;;;25.70;66.70;;;;;;5117155;27;19967;-60
2021/07/31 01:27:39;;;;;;;;;;;25.70;66.70;;;;;;5134820;27;19973;-60
2021/07/31 01:30:07;;;;;;;;;;;25.70;66.70;;;;;;5134805;27;20029;-60
2021/07/31 01:32:34;;;;;;;;;;;25.70;66.90;;;;;;5134642;27;19924;-60
2021/07/31 01:35:01;;;;;;;;;;;25.70;66.80;;;;;;5133977;27;19928;-60
2021/07/31 01:37:30;;;;;;;;;;;25.70;66.80;;;;;;5133446;27;19923;-61
2021/07/31 01:39:58;;;;;;;;;;;25.70;66.80;;;;;;5133297;27;19924;-60
2021/07/31 01:42:25;;;;;;;;;;;25.70;66.80;;;;;;5133026;27;19923;-60
2021/07/31 01:44:52;;;;;;;;;;;25.70;66.80;;;;;;5133287;27;19969;-61
2021/07/31 01:47:19;;;;;;;;;;;25.70;66.70;;;;;;5132394;27;19923;-60
2021/07/31 01:49:46;;;;;;;;;;;25.70;66.70;;;;;;5132310;27;20348;-60
2021/07/31 01:52:13;;;;;;;;;;;25.70;66.80;;;;;;5134250;27;19976;-60
2021/07/31 01:54:40;;;;;;;;;;;25.70;66.80;;;;;;5133406;27;20034;-60
2021/07/31 01:57:07;;;;;;;;;;;25.70;66.90;;;;;;5134503;27;19955;-62
2021/07/31 01:59:34;;;;;;;;;;;25.70;66.90;;;;;;5134190;27;20379;-61
2021/07/31 02:02:02;;;;;;;;;;;25.70;66.80;;;;;;5134602;27;20368;-60
2021/07/31 02:04:29;;;;;;;;;;;25.60;66.80;;;;;;5133143;27;19923;-60
2021/07/31 02:06:56;;;;;;;;;;;25.60;66.90;;;;;;5134091;27;19923;-61
2021/07/31 02:09:23;;;;;;;;;;;25.60;66.90;;;;;;5128397;27;19924;-61
2021/07/31 02:11:50;;;;;;;;;;;25.60;67.00;;;;;;5121348;27;19969;-60
2021/07/31 02:14:17;;;;;;;;;;;25.60;67.10;;;;;;5132898;27;19971;-60
2021/07/31 02:16:44;;;;;;;;;;;25.60;67.10;;;;;;5132914;27;19980;-60
2021/07/31 02:19:11;;;;;;;;;;;25.60;67.10;;;;;;5131379;27;19930;-60
2021/07/31 02:21:38;;;;;;;;;;;25.60;67.00;;;;;;5133215;27;20439;-60
2021/07/31 02:24:05;;;;;;;;;;;25.60;67.00;;;;;;5116582;27;19928;-61
2021/07/31 02:26:32;;;;;;;;;;;25.60;67.10;;;;;;5133079;27;19931;-61
2021/07/31 02:28:59;;;;;;;;;;;25.60;67.10;;;;;;5132562;27;20387;-61
2021/07/31 02:31:26;;;;;;;;;;;25.60;67.10;;;;;;5131793;27;20379;-60
2021/07/31 02:33:53;;;;;;;;;;;25.60;67.10;;;;;;5133730;27;19931;-61
2021/07/31 02:36:20;;;;;;;;;;;25.60;67.80;;;;;;5121194;27;19924;-60
2021/07/31 02:38:47;;;;;;;;;;;25.60;67.10;;;;;;5130083;27;19923;-61
2021/07/31 02:41:14;;;;;;;;;;;25.60;67.00;;;;;;5131156;27;19966;-60
2021/07/31 02:43:41;;;;;;;;;;;25.70;67.00;;;;;;5132771;27;19946;-61
2021/07/31 02:46:09;;;;;;;;;;;25.60;67.00;;;;;;5113095;28;19923;-60
2021/07/31 02:48:37;;;;;;;;;;;25.70;66.90;;;;;;5132338;27;20278;-60
2021/07/31 02:51:11;;;;;;;;;;;25.70;66.90;;;;;;5129798;27;19930;-60
2021/07/31 02:53:39;;;;;;;;;;;25.70;66.90;;;;;;5133944;27;19924;-61
2021/07/31 02:56:06;;;;;;;;;;;25.70;67.00;;;;;;5132226;27;19959;-61
2021/07/31 02:58:33;;;;;;;;;;;25.70;66.90;;;;;;5125549;28;20027;-60
2021/07/31 03:01:04;;;;;;;;;;;25.60;66.90;;;;;;5116598;28;19927;-60
2021/07/31 03:03:31;;;;;;;;;;;25.70;66.90;;;;;;5121948;28;19927;-60
2021/07/31 03:05:59;;;;;;;;;;;25.60;67.00;;;;;;5132358;28;19977;-61
2021/07/31 03:08:27;;;;;;;;;;;25.60;67.00;;;;;;5133518;28;19923;-61
2021/07/31 03:10:55;;;;;;;;;;;25.60;67.00;;;;;;5133287;28;19984;-60
2021/07/31 03:13:22;;;;;;;;;;;25.60;67.10;;;;;;5128789;28;19924;-60
2021/07/31 03:15:51;;;;;;;;;;;25.60;67.10;;;;;;5118699;28;19945;-60
2021/07/31 03:18:18;;;;;;;;;;;25.60;67.20;;;;;;5132502;28;19930;-60
2021/07/31 03:20:49;;;;;;;;;;;25.60;67.10;;;;;;5133339;28;19976;-60
2021/07/31 03:23:17;;;;;;;;;;;25.60;67.20;;;;;;5132162;28;19955;-58
2021/07/31 03:25:44;;;;;;;;;;;25.60;67.20;;;;;;5133239;28;19931;-60
2021/07/31 03:28:11;;;;;;;;;;;25.60;67.20;;;;;;5133513;28;20299;-60
2021/07/31 03:30:42;;;;;;;;;;;25.60;67.20;;;;;;5133685;28;20287;-60
2021/07/31 03:33:10;;;;;;;;;;;25.60;67.30;;;;;;5132544;28;19954;-60
2021/07/31 03:35:37;;;;;;;;;;;25.60;67.30;;;;;;5127364;28;20333;-60
2021/07/31 03:38:04;;;;;;;;;;;25.60;67.20;;;;;;5133374;28;19923;-60
2021/07/31 03:40:31;;;;;;;;;;;25.60;67.20;;;;;;5133408;28;19973;-60
2021/07/31 03:42:58;;;;;;;;;;;25.60;67.20;;;;;;5132980;28;19930;-61
2021/07/31 03:45:25;;;;;;;;;;;25.60;67.20;;;;;;5131595;28;19955;-60
2021/07/31 03:47:53;;;;;;;;;;;25.60;67.20;;;;;;5131522;28;20312;-60
2021/07/31 03:50:20;;;;;;;;;;;25.60;67.20;;;;;;5133361;28;20325;-60
2021/07/31 03:52:47;;;;;;;;;;;25.60;67.20;;;;;;5133340;28;19955;-60
2021/07/31 03:55:14;;;;;;;;;;;25.60;67.20;;;;;;5131287;28;19924;-60
2021/07/31 03:57:41;;;;;;;;;;;25.60;67.20;;;;;;5132825;28;19927;-60
2021/07/31 04:00:08;;;;;;;;;;;25.60;67.20;;;;;;5125093;28;19973;-61
2021/07/31 04:02:35;;;;;;;;;;;25.60;67.10;;;;;;5122542;27;20012;-60
2021/07/31 04:05:03;;;;;;;;;;;25.60;67.10;;;;;;5116884;27;19968;-60
2021/07/31 04:07:30;;;;;;;;;;;25.60;67.10;;;;;;5135611;27;19924;-60
2021/07/31 04:09:57;;;;;;;;;;;25.60;67.00;;;;;;5131039;27;19924;-60
2021/07/31 04:12:24;;;;;;;;;;;25.60;67.10;;;;;;5123124;27;19953;-60
2021/07/31 04:14:51;;;;;;;;;;;25.60;67.10;;;;;;5136683;27;20332;-60
2021/07/31 04:17:18;;;;;;;;;;;25.60;67.20;;;;;;5136686;27;20331;-60
2021/07/31 04:19:45;;;;;;;;;;;25.60;67.20;;;;;;5134868;27;19925;-60
2021/07/31 04:22:13;;;;;;;;;;;25.60;67.30;;;;;;5135088;27;20272;-60
2021/07/31 04:24:40;;;;;;;;;;;25.60;67.30;;;;;;5136167;27;20337;-61
2021/07/31 04:27:07;;;;;;;;;;;25.60;67.40;;;;;;5099922;27;19965;-60
2021/07/31 04:29:34;;;;;;;;;;;25.60;67.40;;;;;;5135289;27;20006;-62
2021/07/31 04:32:01;;;;;;;;;;;25.60;67.50;;;;;;5136314;27;19927;-60
2021/07/31 04:34:29;;;;;;;;;;;25.60;67.40;;;;;;5136448;27;20006;-61
2021/07/31 04:36:56;;;;;;;;;;;25.60;67.40;;;;;;5133593;27;19966;-60
2021/07/31 04:39:23;;;;;;;;;;;25.60;67.50;;;;;;5136261;27;19968;-60
2021/07/31 04:41:50;;;;;;;;;;;25.60;67.50;;;;;;5135966;27;20318;-61
2021/07/31 04:44:17;;;;;;;;;;;25.60;67.40;;;;;;5135884;27;20299;-61
2021/07/31 04:46:44;;;;;;;;;;;25.60;67.40;;;;;;5117786;27;19931;-60
2021/07/31 04:49:11;;;;;;;;;;;25.60;67.50;;;;;;5136070;27;20283;-61
2021/07/31 04:51:38;;;;;;;;;;;25.70;67.30;;;;;;5125161;27;19924;-61
2021/07/31 04:54:05;;;;;;;;;;;25.70;67.30;;;;;;5127504;27;20314;-60
2021/07/31 04:56:32;;;;;;;;;;;25.70;67.10;;;;;;5134147;27;20066;-61
2021/07/31 04:59:01;;;;;;;;;;;25.70;67.10;;;;;;5134985;27;20293;-60
2021/07/31 05:01:28;;;;;;;;;;;25.70;67.00;;;;;;5135470;27;20359;-61
2021/07/31 05:03:55;;;;;;;;;;;25.70;67.70;;;;;;5116228;27;19985;-60
2021/07/31 05:06:22;;;;;;;;;;;25.80;67.10;;;;;;5133237;27;19927;-60
2021/07/31 05:08:50;;;;;;;;;;;25.80;67.10;;;;;;5133033;27;20043;-60
2021/07/31 05:11:21;;;;;;;;;;;25.80;66.90;;;;;;5133937;27;19954;-61
2021/07/31 05:13:48;;;;;;;;;;;25.80;66.90;;;;;;5134203;27;19953;-60
2021/07/31 05:16:19;;;;;;;;;;;25.80;66.90;;;;;;5132843;27;20555;-60
2021/07/31 05:18:46;;;;;;;;;;;25.80;66.80;;;;;;5118434;27;19930;-61
2021/07/31 05:21:13;;;;;;;;;;;25.80;66.80;;;;;;5135523;27;19930;-61
2021/07/31 05:23:40;;;;;;;;;;;25.90;66.80;;;;;;5133988;27;19968;-60
2021/07/31 05:26:08;;;;;;;;;;;25.90;67.50;;;;;;5134025;27;20375;-60
2021/07/31 05:28:35;;;;;;;;;;;25.90;66.60;;;;;;5133871;27;19946;-61
2021/07/31 05:31:02;;;;;;;;;;;25.90;66.40;;;;;;5134252;27;19927;-61
2021/07/31 05:33:29;;;;;;;;;;;26.00;66.50;;;;;;5132947;27;19957;-60
2021/07/31 05:35:56;;;;;;;;;;;26.00;66.40;;;;;;5114900;27;19923;-61
2021/07/31 05:38:23;;;;;;;;;;;26.00;66.50;;;;;;5132160;27;20547;-60
2021/07/31 05:40:50;;;;;;;;;;;26.00;66.50;;;;;;5135111;27;20354;-60
2021/07/31 05:43:17;;;;;;;;;;;26.00;66.50;;;;;;5122864;27;20018;-60
2021/07/31 05:45:46;;;;;;;;;;;26.00;66.40;;;;;;5127452;27;19945;-61
2021/07/31 05:48:13;;;;;;;;;;;26.10;66.20;;;;;;5122943;27;19940;-61
2021/07/31 05:50:40;;;;;;;;;;;26.10;66.10;;;;;;5118018;27;20323;-60
2021/07/31 05:53:07;;;;;;;;;;;26.10;65.90;;;;;;5117977;27;20010;-60
2021/07/31 05:55:34;;;;;;;;;;;26.10;65.90;;;;;;5124508;27;20344;-60
2021/07/31 05:58:01;;;;;;;;;;;26.10;65.80;;;;;;5133438;27;19962;-60
2021/07/31 06:00:28;;;;;;;;;;;26.10;65.90;;;;;;5133438;27;19984;-60
2021/07/31 06:02:55;;;;;;;;;;;26.20;65.90;;;;;;5131669;27;19930;-61
2021/07/31 06:05:23;;;;;;;;;;;26.20;66.00;;;;;;5134283;27;19927;-60
2021/07/31 06:07:49;;;;;;;;;;;26.20;65.80;;;;;;5131819;27;19924;-60
2021/07/31 06:10:16;;;;;;;;;;;26.20;65.80;;;;;;5131240;27;19974;-62
2021/07/31 06:12:43;;;;;;;;;;;26.20;66.00;;;;;;5115615;27;19976;-60
2021/07/31 06:15:10;;;;;;;;;;;26.20;65.80;;;;;;5131918;27;19928;-60
2021/07/31 06:17:37;;;;;;;;;;;26.20;65.90;;;;;;5132892;27;20367;-60
2021/07/31 06:20:07;;;;;;;;;;;26.20;65.80;;;;;;5132976;27;19970;-61
2021/07/31 06:22:34;;;;;;;;;;;26.20;65.80;;;;;;5134423;27;19983;-60
2021/07/31 06:25:02;;;;;;;;;;;26.20;65.80;;;;;;5116293;27;20286;-60
2021/07/31 06:27:29;;;;;;;;;;;26.20;65.70;;;;;;5133799;27;20263;-61
2021/07/31 06:29:56;;;;;;;;;;;26.20;65.50;;;;;;5133743;27;19924;-61
2021/07/31 06:32:23;;;;;;;;;;;26.30;65.60;;;;;;5119134;27;20336;-60
2021/07/31 06:34:50;;;;;;;;;;;26.30;65.60;;;;;;5130092;27;19927;-61
2021/07/31 06:37:17;;;;;;;;;;;26.30;65.50;;;;;;5130971;27;19970;-60
2021/07/31 06:39:44;;;;;;;;;;;26.30;66.20;;;;;;5122049;27;19956;-60
2021/07/31 06:42:11;;;;;;;;;;;26.30;65.40;;;;;;5115484;28;19973;-60
2021/07/31 06:44:38;;;;;;;;;;;26.30;65.50;;;;;;5107786;27;20006;-60
2021/07/31 06:47:05;;;;;;;;;;;26.40;65.50;;;;;;5132178;27;20002;-60
2021/07/31 06:49:32;;;;;;;;;;;26.40;65.50;;;;;;5131284;27;19928;-61
2021/07/31 06:51:59;;;;;;;;;;;26.40;65.30;;;;;;5133629;27;19984;-61
2021/07/31 06:54:26;;;;;;;;;;;26.40;65.30;;;;;;5133780;27;20341;-60
2021/07/31 06:56:53;;;;;;;;;;;26.40;65.20;;;;;;5133501;27;20451;-61
2021/07/31 06:59:20;;;;;;;;;;;26.40;65.30;;;;;;5131004;28;19967;-61
2021/07/31 07:01:47;;;;;;;;;;;26.40;65.30;;;;;;5132517;28;19923;-60
2021/07/31 07:04:14;;;;;;;;;;;26.40;65.40;;;;;;5132205;28;19972;-60
2021/07/31 07:06:42;;;;;;;;;;;26.30;65.10;;;;;;5132208;28;19976;-60
2021/07/31 07:09:09;;;;;;;;;;;26.40;65.30;;;;;;5132002;28;20379;-60
2021/07/31 07:11:37;;;;;;;;;;;26.40;65.20;;;;;;5133849;28;19932;-60
2021/07/31 07:14:04;;;;;;;;;;;26.40;65.30;;;;;;5131589;28;19947;-60
2021/07/31 07:16:31;;;;;;;;;;;26.40;65.30;;;;;;5133127;28;19980;-60
2021/07/31 07:18:59;;;;;;;;;;;26.40;65.10;;;;;;5133158;28;19930;-60
2021/07/31 07:21:26;;;;;;;;;;;26.40;65.10;;;;;;5132725;28;19928;-61
2021/07/31 07:23:53;;;;;;;;;;;26.50;65.00;;;;;;5116707;28;19966;-60
2021/07/31 07:26:20;;;;;;;;;;;26.50;65.00;;;;;;5116426;28;19923;-60
2021/07/31 07:28:47;;;;;;;;;;;26.50;65.00;;;;;;5130157;28;19975;-60
2021/07/31 07:31:14;;;;;;;;;;;26.50;65.00;;;;;;5132579;28;19927;-60
2021/07/31 07:33:41;;;;;;;;;;;26.50;64.60;;;;;;5120660;28;20403;-61
2021/07/31 07:36:15;;;;;;;;;;;26.50;64.90;;;;;;5117883;28;19976;-62
2021/07/31 07:38:42;;;;;;;;;;;26.50;64.70;;;;;;5110801;27;19927;-60
2021/07/31 07:41:10;;;;;;;;;;;26.60;64.90;;;;;;5135937;27;19936;-60
2021/07/31 07:43:37;;;;;;;;;;;26.50;64.80;;;;;;5117608;27;19985;-60
2021/07/31 07:46:04;;;;;;;;;;;26.60;64.70;;;;;;5134584;27;20314;-60
2021/07/31 07:48:32;;;;;;;;;;;26.60;64.40;;;;;;5136764;27;20003;-61
2021/07/31 07:50:59;;;;;;;;;;;26.70;64.30;;;;;;5135715;27;19969;-60
2021/07/31 07:53:26;;;;;;;;;;;26.70;64.10;;;;;;5135588;27;20014;-61
2021/07/31 07:55:53;;;;;;;;;;;26.70;64.10;;;;;;5135524;27;19991;-61
2021/07/31 07:58:20;;;;;;;;;;;26.80;64.30;;;;;;5135237;27;20484;-61
2021/07/31 08:00:47;;;;;;;;;;;26.80;64.20;;;;;;5136701;27;19923;-61
2021/07/31 08:03:14;;;;;;;;;;;26.80;64.00;;;;;;5136948;27;20299;-62
2021/07/31 08:05:41;;;;;;;;;;;26.80;63.90;;;;;;5118758;27;19924;-61
2021/07/31 08:08:08;;;;;;;;;;;26.80;63.80;;;;;;5117034;27;19924;-61
2021/07/31 08:10:35;;;;;;;;;;;26.80;63.70;;;;;;5130944;27;19927;-61
2021/07/31 08:13:03;;;;;;;;;;;26.90;63.90;;;;;;5136510;27;19971;-60
2021/07/31 08:15:30;;;;;;;;;;;26.90;63.70;;;;;;5117888;27;19931;-61
2021/07/31 08:17:57;;;;;;;;;;;26.90;63.70;;;;;;5118339;27;19969;-61
2021/07/31 08:20:24;;;;;;;;;;;26.80;63.80;;;;;;5136142;27;19924;-61
2021/07/31 08:22:51;;;;;;;;;;;26.90;63.80;;;;;;5136635;27;19931;-61
2021/07/31 08:25:18;;;;;;;;;;;26.90;63.70;;;;;;5134016;27;19923;-61
2021/07/31 08:27:45;;;;;;;;;;;26.90;63.80;;;;;;5134496;27;19923;-61
2021/07/31 08:30:12;;;;;;;;;;;26.90;63.50;;;;;;5135401;27;19927;-61
2021/07/31 08:32:41;;;;;;;;;;;27.00;63.70;;;;;;5124225;27;19928;-61
2021/07/31 08:35:10;;;;;;;;;;;27.00;63.40;;;;;;5128342;27;19976;-61
2021/07/31 08:37:38;;;;;;;;;;;27.00;63.40;;;;;;5129949;27;20332;-61
2021/07/31 08:40:06;;;;;;;;;;;27.00;63.40;;;;;;5133377;27;20268;-60
2021/07/31 08:42:35;;;;;;;;;;;27.00;63.00;;;;;;5116704;27;19975;-61
2021/07/31 08:45:06;;;;;;;;;;;27.10;63.20;;;;;;5136000;27;19980;-61
2021/07/31 08:47:34;;;;;;;;;;;27.10;63.10;;;;;;5135494;27;20425;-61
2021/07/31 08:50:02;;;;;;;;;;;27.10;63.00;;;;;;5134097;27;19923;-61
2021/07/31 08:52:32;;;;;;;;;;;27.20;62.60;;;;;;5132597;27;20358;-63
2021/07/31 08:54:59;;;;;;;;;;;27.20;62.50;;;;;;5133493;27;19923;-60
2021/07/31 08:57:26;;;;;;;;;;;27.20;62.50;;;;;;5117102;27;19924;-61
2021/07/31 08:59:53;;;;;;;;;;;27.30;61.90;;;;;;5133973;27;19974;-60
2021/07/31 09:02:21;;;;;;;;;;;27.30;61.70;;;;;;5132600;27;19931;-60
2021/07/31 09:04:50;;;;;;;;;;;27.40;61.90;;;;;;5133780;27;19930;-61
2021/07/31 09:07:17;;;;;;;;;;;27.40;61.80;;;;;;5135491;27;19963;-61
2021/07/31 09:09:46;;;;;;;;;;;27.40;61.50;;;;;;5135532;27;19924;-61
2021/07/31 09:12:13;;;;;;;;;;;27.40;61.70;;;;;;5135762;27;19933;-61
2021/07/31 09:14:44;;;;;;;;;;;27.40;61.30;;;;;;5117375;27;20011;-62
2021/07/31 09:17:25;;;;;;;;;;;27.50;61.30;;;;;;5116220;27;19953;-60
2021/07/31 09:19:53;;;;;;;;;;;27.50;61.00;;;;;;5125106;27;20178;-61
2021/07/31 09:22:20;;;;;;;;;;;27.60;60.80;;;;;;5124946;27;19924;-60
2021/07/31 09:25:06;;;;;;;;;;;27.60;60.60;;;;;;5126120;27;19923;-60
2021/07/31 09:27:33;;;;;;;;;;;27.70;60.40;;;;;;5123632;27;19923;-61
2021/07/31 09:30:01;;;;;;;;;;;27.70;60.30;;;;;;5124876;27;20414;-60
2021/07/31 09:32:38;;;;;;;;;;;27.70;60.60;;;;;;5123852;27;19970;-61
2021/07/31 09:35:26;;;;;;;;;;;27.70;60.50;;;;;;5123675;27;19924;-61
2021/07/31 09:37:54;;;;;;;;;;;27.70;60.60;;;;;;5124365;27;19928;-60
2021/07/31 09:40:28;;;;;;;;;;;27.80;60.10;;;;;;5123937;27;19970;-60
2021/07/31 09:42:56;;;;;;;;;;;27.80;59.90;;;;;;5125148;27;19923;-61
2021/07/31 09:45:31;;;;;;;;;;;27.80;59.90;;;;;;5123614;27;19928;-61
2021/07/31 09:47:58;;;;;;;;;;;27.80;59.80;;;;;;5124904;27;19923;-61
2021/07/31 09:50:54;;;;;;;;;;;27.70;59.80;;;;;;5124339;27;20371;-60
2021/07/31 09:53:22;;;;;;;;;;;27.70;59.50;;;;;;5101641;28;19975;-61
2021/07/31 09:55:50;;;;;;;;;;;27.70;59.80;;;;;;5101364;28;20003;-60
2021/07/31 09:58:18;;;;;;;;;;;27.70;59.70;;;;;;5104223;28;20398;-60
2021/07/31 10:00:47;;;;;;;;;;;27.70;60.50;;;;;;5107226;28;19953;-61
2021/07/31 10:03:14;;;;;;;;;;;27.70;60.00;;;;;;5088524;28;20006;-61
2021/07/31 10:05:42;;;;;;;;;;;27.70;59.90;;;;;;5107606;28;20033;-61
2021/07/31 10:08:27;;;;;;;;;;;27.70;60.00;;;;;;5094638;28;19924;-62
2021/07/31 10:10:54;;;;;;;;;;;27.70;59.90;;;;;;5095277;28;19957;-61
2021/07/31 10:13:23;;;;;;;;;;;27.70;59.90;;;;;;5109106;28;20003;-61
2021/07/31 10:15:51;;;;;;;;;;;27.70;60.00;;;;;;5107838;28;20328;-62
2021/07/31 10:18:19;;;;;;;;;;;27.70;60.20;;;;;;5111704;28;20481;-60
2021/07/31 10:20:46;;;;;;;;;;;27.70;60.00;;;;;;5096465;28;20358;-61
2021/07/31 10:23:13;;;;;;;;;;;27.70;59.80;;;;;;5111601;28;19927;-60
2021/07/31 10:26:00;;;;;;;;;;;27.70;59.90;;;;;;5110500;28;19924;-60
2021/07/31 10:28:28;;;;;;;;;;;27.70;59.80;;;;;;5110877;28;19924;-60
2021/07/31 10:31:15;;;;;;;;;;;27.70;60.00;;;;;;5131599;27;19929;-61
2021/07/31 10:33:43;;;;;;;;;;;27.70;60.10;;;;;;5116566;27;19924;-60
2021/07/31 10:36:29;;;;;;;;;;;27.70;59.50;;;;;;5125325;27;19989;-61
2021/07/31 10:39:00;;;;;;;;;;;27.70;60.10;;;;;;5116478;27;20014;-61
2021/07/31 10:41:46;;;;;;;;;;;27.70;59.30;;;;;;5133773;27;19967;-61
2021/07/31 10:44:13;;;;;;;;;;;27.70;59.70;;;;;;5100157;27;19923;-60
2021/07/31 10:46:40;;;;;;;;;;;27.70;59.90;;;;;;5114133;28;20334;-60
2021/07/31 10:49:25;;;;;;;;;;;27.70;60.00;;;;;;5114209;27;19924;-62
2021/07/31 10:51:52;;;;;;;;;;;27.70;60.00;;;;;;5116044;27;19928;-61
2021/07/31 10:54:39;;;;;;;;;;;27.70;59.90;;;;;;5132357;27;20349;-61
2021/07/31 10:57:22;;;;;;;;;;;27.70;59.70;;;;;;5133768;27;19930;-61
2021/07/31 11:00:07;;;;;;;;;;;27.70;59.80;;;;;;5132743;27;19971;-61
2021/07/31 11:02:36;;;;;;;;;;;27.70;59.80;;;;;;5131985;28;20014;-61
2021/07/31 11:05:04;;;;;;;;;;;27.70;59.80;;;;;;5133503;28;20006;-61
2021/07/31 11:07:51;;;;;;;;;;;27.70;59.90;;;;;;5133364;28;19959;-61
2021/07/31 11:10:30;;;;;;;;;;;27.70;59.90;;;;;;5131969;28;20426;-61
2021/07/31 11:12:58;;;;;;;;;;;27.70;60.00;;;;;;5135005;27;20344;-60
2021/07/31 11:15:25;;;;;;;;;;;27.70;60.10;;;;;;5137817;27;19976;-61
2021/07/31 11:18:00;;;;;;;;;;;27.70;60.10;;;;;;5136307;27;19972;-61
2021/07/31 11:20:31;;;;;;;;;;;27.70;60.00;;;;;;5135530;27;19924;-61
2021/07/31 11:23:01;;;;;;;;;;;27.70;59.90;;;;;;5135151;27;19966;-60
2021/07/31 11:25:28;;;;;;;;;;;27.70;59.70;;;;;;5137681;27;19973;-59
2021/07/31 11:28:00;;;;;;;;;;;27.80;59.70;;;;;;5137450;27;20313;-61
2021/07/31 11:30:40;;;;;;;;;;;27.80;59.40;;;;;;5136380;27;20257;-60
2021/07/31 11:33:17;;;;;;;;;;;27.80;59.70;;;;;;5135073;27;19974;-61
2021/07/31 11:35:44;;;;;;;;;;;27.90;59.40;;;;;;5136383;27;19970;-61
2021/07/31 11:38:30;;;;;;;;;;;27.90;59.20;;;;;;5118195;27;19971;-60
2021/07/31 11:40:58;;;;;;;;;;;27.90;59.00;;;;;;5137394;27;20361;-61
2021/07/31 11:43:25;;;;;;;;;;;28.00;59.10;;;;;;5135684;27;20609;-61
2021/07/31 11:45:52;;;;;;;;;;;28.00;59.10;;;;;;5135407;27;19923;-61
2021/07/31 11:48:20;;;;;;;;;;;28.00;59.00;;;;;;5137296;27;20336;-61
2021/07/31 11:51:06;;;;;;;;;;;28.10;59.10;;;;;;5137075;27;20359;-61
2021/07/31 11:53:33;;;;;;;;;;;28.10;59.00;;;;;;5135786;27;19928;-61
2021/07/31 11:56:16;;;;;;;;;;;28.10;59.00;;;;;;5135089;27;19931;-61
2021/07/31 11:58:43;;;;;;;;;;;28.10;58.90;;;;;;5136982;27;19927;-60
2021/07/31 12:01:11;;;;;;;;;;;28.10;59.00;;;;;;5136742;27;19924;-61
2021/07/31 12:03:40;;;;;;;;;;;28.00;58.70;;;;;;5134233;27;19953;-61
2021/07/31 12:06:26;;;;;;;;;;;28.00;58.70;;;;;;5135341;27;19923;-61
2021/07/31 12:08:53;;;;;;;;;;;28.00;58.70;;;;;;5121255;27;19971;-60
2021/07/31 12:11:49;;;;;;;;;;;27.90;58.80;;;;;;5135452;27;20372;-61
2021/07/31 12:14:35;;;;;;;;;;;27.90;58.80;;;;;;5107772;27;19924;-61
2021/07/31 12:17:21;;;;;;;;;;;28.00;58.90;;;;;;5136688;27;19924;-61
2021/07/31 12:19:55;;;;;;;;;;;28.00;59.00;;;;;;5134183;27;19973;-61
2021/07/31 12:22:23;;;;;;;;;;;28.00;59.00;;;;;;5135182;27;19966;-60
2021/07/31 12:25:06;;;;;;;;;;;28.00;59.00;;;;;;5133597;27;20276;-60
2021/07/31 12:27:51;;;;;;;;;;;28.00;58.90;;;;;;5135241;27;19931;-61
2021/07/31 12:30:31;;;;;;;;;;;28.00;59.00;;;;;;5134650;27;19970;-62
2021/07/31 12:33:02;;;;;;;;;;;28.00;58.90;;;;;;5135101;27;20010;-61
2021/07/31 12:35:45;;;;;;;;;;;28.00;59.00;;;;;;5131705;27;19924;-61
2021/07/31 12:38:17;;;;;;;;;;;28.00;59.00;;;;;;5128533;27;19928;-61
2021/07/31 12:40:44;;;;;;;;;;;28.00;59.00;;;;;;5135970;27;19928;-60
2021/07/31 12:43:12;;;;;;;;;;;28.10;59.10;;;;;;5125254;27;20318;-60
2021/07/31 12:45:40;;;;;;;;;;;28.10;59.00;;;;;;5125923;27;19923;-60
2021/07/31 12:48:07;;;;;;;;;;;28.10;58.90;;;;;;5134962;27;19962;-61
2021/07/31 12:50:34;;;;;;;;;;;28.10;58.80;;;;;;5127946;27;20006;-61
2021/07/31 12:53:02;;;;;;;;;;;28.10;58.80;;;;;;5118751;27;19930;-61
2021/07/31 12:55:29;;;;;;;;;;;28.10;58.80;;;;;;5121986;27;19959;-61
2021/07/31 12:57:56;;;;;;;;;;;28.10;58.80;;;;;;5134597;27;19923;-61
2021/07/31 13:00:23;;;;;;;;;;;28.10;58.80;;;;;;5135856;27;20347;-61
2021/07/31 13:03:10;;;;;;;;;;;28.10;58.80;;;;;;5134163;27;20016;-61
2021/07/31 13:05:39;;;;;;;;;;;28.20;58.70;;;;;;5135877;27;20371;-61
2021/07/31 13:08:06;;;;;;;;;;;28.10;58.80;;;;;;5134703;27;19931;-61
2021/07/31 13:10:34;;;;;;;;;;;28.10;58.70;;;;;;5115456;27;20352;-61
2021/07/31 13:13:02;;;;;;;;;;;28.10;58.80;;;;;;5134637;27;20470;-61
2021/07/31 13:15:29;;;;;;;;;;;28.10;58.60;;;;;;5135488;27;20354;-62
2021/07/31 13:17:56;;;;;;;;;;;28.10;58.60;;;;;;5135193;27;20290;-60
2021/07/31 13:20:23;;;;;;;;;;;28.10;58.60;;;;;;5134808;27;19972;-62
2021/07/31 13:22:50;;;;;;;;;;;28.10;58.60;;;;;;5134359;27;20018;-61
2021/07/31 13:25:17;;;;;;;;;;;28.10;58.60;;;;;;5117317;27;19972;-61
2021/07/31 13:27:44;;;;;;;;;;;28.10;58.60;;;;;;5135211;27;19935;-61
2021/07/31 13:30:11;;;;;;;;;;;28.10;58.70;;;;;;5115967;27;20022;-61
2021/07/31 13:32:38;;;;;;;;;;;28.10;58.60;;;;;;5135260;27;20026;-60
2021/07/31 13:35:05;;;;;;;;;;;28.10;58.80;;;;;;5134182;27;20000;-61
2021/07/31 13:37:39;;;;;;;;;;;28.10;58.80;;;;;;5130330;27;19923;-61
2021/07/31 13:43:03;;;;;;;;;;;28.10;58.60;;;;;;5074388;28;20007;-60
2021/07/31 13:45:32;;;;;;;;;;;28.10;58.60;;;;;;5071652;28;19978;-61
2021/07/31 13:48:01;;;;;;;;;;;28.10;58.60;;;;;;5058043;28;19928;-63
2021/07/31 13:50:28;;;;;;;;;;;28.10;58.70;;;;;;5069753;28;19931;-62
2021/07/31 13:52:55;;;;;;;;;;;28.10;58.40;;;;;;5070423;28;20018;-62
2021/07/31 13:55:22;;;;;;;;;;;28.10;58.30;;;;;;5069061;28;19983;-61
2021/07/31 13:57:49;;;;;;;;;;;28.10;58.30;;;;;;5050592;28;20095;-61
2021/07/31 14:00:17;;;;;;;;;;;28.10;58.20;;;;;;5064636;28;19925;-61
2021/07/31 14:02:45;;;;;;;;;;;28.00;57.80;;;;;;5062468;28;19979;-61
2021/07/31 14:05:14;;;;;;;;;;;28.00;58.00;;;;;;5061465;28;20308;-60
2021/07/31 14:07:44;;;;;;;;;;;28.00;58.10;;;;;;5056367;28;19925;-60
2021/07/31 14:10:12;;;;;;;;;;;28.00;58.20;;;;;;5064042;28;19975;-60
2021/07/31 14:12:39;;;;;;;;;;;27.90;58.10;;;;;;5060400;28;19924;-61
2021/07/31 14:15:08;;;;;;;;;;;27.90;58.30;;;;;;5070774;28;20327;-61
2021/07/31 14:17:35;;;;;;;;;;;27.90;59.10;;;;;;5069776;28;19960;-61
2021/07/31 14:20:03;;;;;;;;;;;27.90;58.60;;;;;;5108987;27;19974;-61
2021/07/31 14:22:30;;;;;;;;;;;27.90;58.70;;;;;;5131538;27;19923;-61
2021/07/31 14:24:58;;;;;;;;;;;27.90;58.80;;;;;;5134292;27;19929;-61
2021/07/31 14:27:25;;;;;;;;;;;27.90;58.70;;;;;;5131438;27;19924;-61
2021/07/31 14:29:52;;;;;;;;;;;27.90;58.50;;;;;;5117255;27;19967;-62